Aérodrome :
LOGIN :

S'inscrire | Disclaimer

   EN    FR    IT 

 










Légende :    VFR   VFR Marginal   IFR   IFR Intensif   IFR Très Intensif
Visi : 
Plafond : 
>= 8 km
>= 3000ft
5 à 8 km
1000 à 3000 ft
1500m à 5 km
500 à 1000 ft
800 à 1500m
200 à 500 ft
< 800m
< 200 ft
Symboles :   Orages  Brouillard  Fortes neiges  Fortes précipitations  Vent > 20 kt
SIGMETs :   Divers  Orages  Givrage  Turbulence  Onde Orograph.  Cendres Volcan.






- Altitude de l'aérodrome : 503 ft
- Code IATA : BLE


ESSD - Borlange

DERNIER METAR :
  • 220750Z 11008KT 9999 SCT009 BKN015 OVC034 04/03 Q1020

METARs EXPIRÉS :
  • 220720Z 12011KT 9999 SCT005 OVC008 05/04 Q1020
  • 220650Z 12009KT 3500 DZ BR OVC008 05/04 Q1020
  • 220620Z AUTO 12009KT 9999 OVC008/// 05/04 Q1020
  • 220550Z AUTO 11009KT 9999 BKN006/// OVC009/// 05/05 Q1020 REDZ
  • 220520Z AUTO 11009KT 9999 OVC006/// 05/05 Q1020

TAF TAF ESSD
Valide du 22 à 07h jusqu'au 22 à 15h UTC


220630Z 2207/2215 11010KT 9999 BKN006
PROB40 2207/2215 2500 RA SCT006 BKN010



MET'MAP, la Météo Aéronautique d'un coup d'oeil ! - Copyright ORBIFLY Décembre 2007 - Disclaimer

ORBIFLY MET'MAP TEAM :

Programmation & Développement : Alexandra Zaïnal
Conception & Développement : Baudouin d'Aumeries
Co-Programmation & Développement : Marc-Olivier Méhu
Soutien technique & logistique : Manuel Goepfert

Contact : metmap@orbifly.com




SOURCES & CREDITS :

   NOAA